sensor_id;sensor_type;location;lat;lon;timestamp;P1;durP1;ratioP1;P2;durP2;ratioP2
46122;SDS011;31856;-35.404;149.120;2022-07-31T05:24:01;7.75;;;2.17;;
46122;SDS011;31856;-35.404;149.120;2022-07-31T05:26:32;5.70;;;2.00;;
46122;SDS011;31856;-35.404;149.120;2022-07-31T05:29:02;5.50;;;2.22;;
46122;SDS011;31856;-35.404;149.120;2022-07-31T05:31:32;7.28;;;3.13;;
46122;SDS011;31856;-35.404;149.120;2022-07-31T05:34:02;4.90;;;2.13;;
46122;SDS011;31856;-35.404;149.120;2022-07-31T05:36:32;6.32;;;2.70;;
46122;SDS011;31856;-35.404;149.120;2022-07-31T05:39:02;5.03;;;2.10;;
46122;SDS011;31856;-35.404;149.120;2022-07-31T05:41:32;3.45;;;1.60;;
46122;SDS011;31856;-35.404;149.120;2022-07-31T05:44:02;9.07;;;2.40;;
46122;SDS011;31856;-35.404;149.120;2022-07-31T05:46:32;4.95;;;2.03;;
46122;SDS011;31856;-35.404;149.120;2022-07-31T05:49:02;5.22;;;2.22;;
46122;SDS011;31856;-35.404;149.120;2022-07-31T05:51:33;4.22;;;2.15;;
46122;SDS011;31856;-35.404;149.120;2022-07-31T05:54:03;2.63;;;1.90;;
46122;SDS011;31856;-35.404;149.120;2022-07-31T05:56:33;5.93;;;2.38;;
46122;SDS011;31856;-35.404;149.120;2022-07-31T05:59:03;6.53;;;2.50;;
46122;SDS011;31856;-35.404;149.120;2022-07-31T06:01:34;5.50;;;2.13;;
46122;SDS011;31856;-35.404;149.120;2022-07-31T06:04:07;7.18;;;2.88;;
46122;SDS011;31856;-35.404;149.120;2022-07-31T06:06:37;3.80;;;2.30;;
46122;SDS011;31856;-35.404;149.120;2022-07-31T06:09:07;5.85;;;2.80;;
46122;SDS011;31856;-35.404;149.120;2022-07-31T06:11:37;6.20;;;3.47;;
46122;SDS011;31856;-35.404;149.120;2022-07-31T06:14:07;4.80;;;2.85;;
46122;SDS011;31856;-35.404;149.120;2022-07-31T06:16:37;6.38;;;2.50;;
46122;SDS011;31856;-35.404;149.120;2022-07-31T06:19:07;8.02;;;3.10;;
46122;SDS011;31856;-35.404;149.120;2022-07-31T06:21:37;6.90;;;2.58;;
46122;SDS011;31856;-35.404;149.120;2022-07-31T06:24:11;3.35;;;2.60;;
46122;SDS011;31856;-35.404;149.120;2022-07-31T06:26:42;6.05;;;2.40;;
46122;SDS011;31856;-35.404;149.120;2022-07-31T06:29:13;4.32;;;2.97;;
46122;SDS011;31856;-35.404;149.120;2022-07-31T06:31:44;5.75;;;3.10;;
46122;SDS011;31856;-35.404;149.120;2022-07-31T06:34:17;8.07;;;2.75;;
46122;SDS011;31856;-35.404;149.120;2022-07-31T06:36:48;6.70;;;3.47;;
46122;SDS011;31856;-35.404;149.120;2022-07-31T06:39:18;6.00;;;2.95;;
46122;SDS011;31856;-35.404;149.120;2022-07-31T06:42:08;3.72;;;2.88;;
46122;SDS011;31856;-35.404;149.120;2022-07-31T06:44:39;9.43;;;3.95;;
46122;SDS011;31856;-35.404;149.120;2022-07-31T06:47:12;8.88;;;3.97;;
46122;SDS011;31856;-35.404;149.120;2022-07-31T06:49:42;4.45;;;2.65;;
46122;SDS011;31856;-35.404;149.120;2022-07-31T06:52:13;8.07;;;2.53;;
46122;SDS011;31856;-35.404;149.120;2022-07-31T06:54:44;4.22;;;2.33;;
46122;SDS011;31856;-35.404;149.120;2022-07-31T06:57:15;6.18;;;2.72;;
46122;SDS011;31856;-35.404;149.120;2022-07-31T06:59:45;4.53;;;2.40;;
46122;SDS011;31856;-35.404;149.120;2022-07-31T07:02:15;5.57;;;3.38;;
46122;SDS011;31856;-35.404;149.120;2022-07-31T07:04:46;8.13;;;2.70;;
46122;SDS011;31856;-35.404;149.120;2022-07-31T07:07:33;5.40;;;2.80;;
46122;SDS011;31856;-35.404;149.120;2022-07-31T07:10:04;4.43;;;2.88;;
46122;SDS011;31856;-35.404;149.120;2022-07-31T07:12:34;3.35;;;2.60;;
46122;SDS011;31856;-35.404;149.120;2022-07-31T07:15:04;7.35;;;2.90;;
46122;SDS011;31856;-35.404;149.120;2022-07-31T07:17:34;5.50;;;2.60;;
46122;SDS011;31856;-35.404;149.120;2022-07-31T07:20:06;4.63;;;2.83;;
46122;SDS011;31856;-35.404;149.120;2022-07-31T07:22:36;6.20;;;2.55;;
46122;SDS011;31856;-35.404;149.120;2022-07-31T07:25:06;8.35;;;2.80;;
46122;SDS011;31856;-35.404;149.120;2022-07-31T07:27:37;5.55;;;2.75;;
46122;SDS011;31856;-35.404;149.120;2022-07-31T07:30:07;6.07;;;3.28;;
46122;SDS011;31856;-35.404;149.120;2022-07-31T07:32:37;5.55;;;3.50;;
46122;SDS011;31856;-35.404;149.120;2022-07-31T07:35:07;5.15;;;3.60;;
46122;SDS011;31856;-35.404;149.120;2022-07-31T07:37:39;5.45;;;3.30;;
46122;SDS011;31856;-35.404;149.120;2022-07-31T07:40:10;5.30;;;3.10;;
46122;SDS011;31856;-35.404;149.120;2022-07-31T07:42:40;8.27;;;3.40;;
46122;SDS011;31856;-35.404;149.120;2022-07-31T07:45:10;5.25;;;2.85;;
46122;SDS011;31856;-35.404;149.120;2022-07-31T07:47:41;7.47;;;3.28;;
46122;SDS011;31856;-35.404;149.120;2022-07-31T07:50:31;4.43;;;2.88;;
46122;SDS011;31856;-35.404;149.120;2022-07-31T07:53:01;9.02;;;3.20;;
46122;SDS011;31856;-35.404;149.120;2022-07-31T07:55:31;7.47;;;3.00;;
46122;SDS011;31856;-35.404;149.120;2022-07-31T07:58:03;4.50;;;3.20;;
46122;SDS011;31856;-35.404;149.120;2022-07-31T08:00:38;5.68;;;3.03;;
46122;SDS011;31856;-35.404;149.120;2022-07-31T08:03:08;5.68;;;2.63;;
46122;SDS011;31856;-35.404;149.120;2022-07-31T08:05:58;3.95;;;2.50;;
46122;SDS011;31856;-35.404;149.120;2022-07-31T08:08:28;5.43;;;3.00;;
46122;SDS011;31856;-35.404;149.120;2022-07-31T08:10:58;7.88;;;3.15;;
46122;SDS011;31856;-35.404;149.120;2022-07-31T08:13:30;5.03;;;2.58;;
46122;SDS011;31856;-35.404;149.120;2022-07-31T08:16:00;6.20;;;2.55;;
46122;SDS011;31856;-35.404;149.120;2022-07-31T08:18:31;4.20;;;2.30;;
46122;SDS011;31856;-35.404;149.120;2022-07-31T08:21:01;6.07;;;2.50;;
46122;SDS011;31856;-35.404;149.120;2022-07-31T08:23:31;7.93;;;3.28;;
46122;SDS011;31856;-35.404;149.120;2022-07-31T08:26:02;4.05;;;2.60;;
46122;SDS011;31856;-35.404;149.120;2022-07-31T08:28:32;3.72;;;2.72;;
46122;SDS011;31856;-35.404;149.120;2022-07-31T08:31:03;3.25;;;2.70;;
46122;SDS011;31856;-35.404;149.120;2022-07-31T08:33:35;4.70;;;2.78;;
46122;SDS011;31856;-35.404;149.120;2022-07-31T08:36:05;5.68;;;3.05;;
46122;SDS011;31856;-35.404;149.120;2022-07-31T08:38:36;7.07;;;2.90;;
46122;SDS011;31856;-35.404;149.120;2022-07-31T08:41:06;6.50;;;3.00;;
46122;SDS011;31856;-35.404;149.120;2022-07-31T08:43:36;5.63;;;3.08;;
46122;SDS011;31856;-35.404;149.120;2022-07-31T08:46:27;6.10;;;3.25;;
46122;SDS011;31856;-35.404;149.120;2022-07-31T08:48:57;5.40;;;3.70;;
46122;SDS011;31856;-35.404;149.120;2022-07-31T08:51:32;8.18;;;3.88;;
46122;SDS011;31856;-35.404;149.120;2022-07-31T08:54:18;6.35;;;3.83;;
46122;SDS011;31856;-35.404;149.120;2022-07-31T08:56:55;7.03;;;4.00;;
46122;SDS011;31856;-35.404;149.120;2022-07-31T08:59:25;6.28;;;3.60;;
46122;SDS011;31856;-35.404;149.120;2022-07-31T09:01:55;4.88;;;3.22;;
46122;SDS011;31856;-35.404;149.120;2022-07-31T09:04:28;6.47;;;3.78;;
46122;SDS011;31856;-35.404;149.120;2022-07-31T09:06:58;7.32;;;3.65;;
46122;SDS011;31856;-35.404;149.120;2022-07-31T09:09:29;6.20;;;3.58;;
46122;SDS011;31856;-35.404;149.120;2022-07-31T09:12:30;7.65;;;3.78;;
46122;SDS011;31856;-35.404;149.120;2022-07-31T14:46:23;3.50;;;1.73;;
46122;SDS011;31856;-35.404;149.120;2022-07-31T14:48:53;4.63;;;1.30;;
46122;SDS011;31856;-35.404;149.120;2022-07-31T14:51:23;3.70;;;1.42;;
46122;SDS011;31856;-35.404;149.120;2022-07-31T14:53:53;4.00;;;1.50;;
46122;SDS011;31856;-35.404;149.120;2022-07-31T14:56:58;4.90;;;1.70;;
46122;SDS011;31856;-35.404;149.120;2022-07-31T14:59:30;4.35;;;1.85;;
46122;SDS011;31856;-35.404;149.120;2022-07-31T15:01:59;4.43;;;1.50;;
46122;SDS011;31856;-35.404;149.120;2022-07-31T15:04:29;3.70;;;1.80;;
46122;SDS011;31856;-35.404;149.120;2022-07-31T15:06:59;5.20;;;1.90;;
46122;SDS011;31856;-35.404;149.120;2022-07-31T15:09:50;4.72;;;2.10;;
46122;SDS011;31856;-35.404;149.120;2022-07-31T15:29:17;4.20;;;1.65;;
46122;SDS011;31856;-35.404;149.120;2022-07-31T15:32:23;3.70;;;1.70;;
46122;SDS011;31856;-35.404;149.120;2022-07-31T15:35:34;4.18;;;1.60;;
46122;SDS011;31856;-35.404;149.120;2022-07-31T15:38:03;4.28;;;1.98;;
46122;SDS011;31856;-35.404;149.120;2022-07-31T15:40:34;3.15;;;1.50;;
46122;SDS011;31856;-35.404;149.120;2022-07-31T15:43:03;2.17;;;1.50;;
46122;SDS011;31856;-35.404;149.120;2022-07-31T15:45:33;2.83;;;1.90;;
46122;SDS011;31856;-35.404;149.120;2022-07-31T15:48:04;2.92;;;1.50;;
46122;SDS011;31856;-35.404;149.120;2022-07-31T15:50:36;2.47;;;1.42;;
46122;SDS011;31856;-35.404;149.120;2022-07-31T15:53:06;5.63;;;1.33;;
46122;SDS011;31856;-35.404;149.120;2022-07-31T15:55:35;2.05;;;1.40;;
46122;SDS011;31856;-35.404;149.120;2022-07-31T15:58:05;2.08;;;1.58;;
46122;SDS011;31856;-35.404;149.120;2022-07-31T16:00:35;3.42;;;1.65;;
46122;SDS011;31856;-35.404;149.120;2022-07-31T16:03:05;1.80;;;1.40;;
46122;SDS011;31856;-35.404;149.120;2022-07-31T16:05:41;3.87;;;1.70;;
46122;SDS011;31856;-35.404;149.120;2022-07-31T16:08:30;2.40;;;1.15;;
46122;SDS011;31856;-35.404;149.120;2022-07-31T16:11:01;4.05;;;1.67;;
46122;SDS011;31856;-35.404;149.120;2022-07-31T16:13:32;3.85;;;1.50;;
46122;SDS011;31856;-35.404;149.120;2022-07-31T16:16:05;1.42;;;1.23;;
46122;SDS011;31856;-35.404;149.120;2022-07-31T16:18:35;2.22;;;1.20;;
46122;SDS011;31856;-35.404;149.120;2022-07-31T16:21:05;2.53;;;1.10;;
46122;SDS011;31856;-35.404;149.120;2022-07-31T16:23:35;3.65;;;2.03;;
46122;SDS011;31856;-35.404;149.120;2022-07-31T16:26:05;1.33;;;1.00;;
46122;SDS011;31856;-35.404;149.120;2022-07-31T16:28:36;1.85;;;1.10;;
46122;SDS011;31856;-35.404;149.120;2022-07-31T16:31:06;1.45;;;1.00;;
46122;SDS011;31856;-35.404;149.120;2022-07-31T16:33:56;5.88;;;2.72;;
46122;SDS011;31856;-35.404;149.120;2022-07-31T16:36:25;1.50;;;1.00;;
46122;SDS011;31856;-35.404;149.120;2022-07-31T16:38:55;1.92;;;0.90;;
46122;SDS011;31856;-35.404;149.120;2022-07-31T16:41:46;1.45;;;0.88;;
46122;SDS011;31856;-35.404;149.120;2022-07-31T16:44:20;2.03;;;0.80;;
46122;SDS011;31856;-35.404;149.120;2022-07-31T16:46:50;3.80;;;0.80;;
46122;SDS011;31856;-35.404;149.120;2022-07-31T16:49:20;1.67;;;1.25;;
46122;SDS011;31856;-35.404;149.120;2022-07-31T16:52:03;1.13;;;0.90;;
46122;SDS011;31856;-35.404;149.120;2022-07-31T16:54:36;1.30;;;0.70;;
46122;SDS011;31856;-35.404;149.120;2022-07-31T16:57:06;1.77;;;0.90;;
46122;SDS011;31856;-35.404;149.120;2022-07-31T16:59:36;1.00;;;0.80;;
46122;SDS011;31856;-35.404;149.120;2022-07-31T17:02:23;0.93;;;0.75;;
46122;SDS011;31856;-35.404;149.120;2022-07-31T17:04:54;1.27;;;0.70;;
46122;SDS011;31856;-35.404;149.120;2022-07-31T17:07:25;0.85;;;0.68;;
46122;SDS011;31856;-35.404;149.120;2022-07-31T17:09:56;3.55;;;0.70;;
46122;SDS011;31856;-35.404;149.120;2022-07-31T17:12:26;1.55;;;0.70;;
46122;SDS011;31856;-35.404;149.120;2022-07-31T17:14:56;2.08;;;0.80;;
46122;SDS011;31856;-35.404;149.120;2022-07-31T17:17:25;2.63;;;1.08;;
46122;SDS011;31856;-35.404;149.120;2022-07-31T17:19:56;1.52;;;0.65;;
46122;SDS011;31856;-35.404;149.120;2022-07-31T17:22:26;0.73;;;0.60;;
46122;SDS011;31856;-35.404;149.120;2022-07-31T17:24:56;2.22;;;0.63;;
46122;SDS011;31856;-35.404;149.120;2022-07-31T17:27:27;1.67;;;0.60;;
46122;SDS011;31856;-35.404;149.120;2022-07-31T17:29:58;2.78;;;0.77;;
46122;SDS011;31856;-35.404;149.120;2022-07-31T17:32:28;0.80;;;0.55;;
46122;SDS011;31856;-35.404;149.120;2022-07-31T17:34:59;1.30;;;0.60;;
46122;SDS011;31856;-35.404;149.120;2022-07-31T17:37:30;0.90;;;0.57;;
46122;SDS011;31856;-35.404;149.120;2022-07-31T17:40:00;0.70;;;0.57;;
46122;SDS011;31856;-35.404;149.120;2022-07-31T17:42:50;1.90;;;0.70;;
46122;SDS011;31856;-35.404;149.120;2022-07-31T17:45:20;1.00;;;0.60;;
46122;SDS011;31856;-35.404;149.120;2022-07-31T17:51:22;1.05;;;0.60;;
46122;SDS011;31856;-35.404;149.120;2022-07-31T17:53:53;1.13;;;0.60;;
46122;SDS011;31856;-35.404;149.120;2022-07-31T17:56:26;5.00;;;0.50;;
46122;SDS011;31856;-35.404;149.120;2022-07-31T17:58:56;1.77;;;0.70;;
46122;SDS011;31856;-35.404;149.120;2022-07-31T18:01:32;1.03;;;0.60;;
46122;SDS011;31856;-35.404;149.120;2022-07-31T18:04:02;0.85;;;0.50;;
46122;SDS011;31856;-35.404;149.120;2022-07-31T18:06:41;0.70;;;0.50;;
46122;SDS011;31856;-35.404;149.120;2022-07-31T18:09:17;0.85;;;0.45;;
46122;SDS011;31856;-35.404;149.120;2022-07-31T18:11:50;0.98;;;0.65;;
46122;SDS011;31856;-35.404;149.120;2022-07-31T18:14:20;0.50;;;0.40;;
46122;SDS011;31856;-35.404;149.120;2022-07-31T18:16:51;0.93;;;0.50;;
46122;SDS011;31856;-35.404;149.120;2022-07-31T18:19:22;0.80;;;0.77;;
46122;SDS011;31856;-35.404;149.120;2022-07-31T18:21:52;1.25;;;0.50;;
46122;SDS011;31856;-35.404;149.120;2022-07-31T18:24:23;0.93;;;0.50;;
46122;SDS011;31856;-35.404;149.120;2022-07-31T18:26:53;1.70;;;0.52;;
46122;SDS011;31856;-35.404;149.120;2022-07-31T18:29:23;0.63;;;0.50;;
46122;SDS011;31856;-35.404;149.120;2022-07-31T18:31:53;1.23;;;0.50;;
46122;SDS011;31856;-35.404;149.120;2022-07-31T18:34:23;1.00;;;0.50;;
46122;SDS011;31856;-35.404;149.120;2022-07-31T18:36:52;0.82;;;0.50;;
46122;SDS011;31856;-35.404;149.120;2022-07-31T18:39:23;0.35;;;0.35;;
46122;SDS011;31856;-35.404;149.120;2022-07-31T18:41:53;0.60;;;0.40;;
46122;SDS011;31856;-35.404;149.120;2022-07-31T18:44:23;0.80;;;0.50;;
46122;SDS011;31856;-35.404;149.120;2022-07-31T18:46:53;0.85;;;0.50;;
46122;SDS011;31856;-35.404;149.120;2022-07-31T18:49:23;0.50;;;0.40;;
46122;SDS011;31856;-35.404;149.120;2022-07-31T18:55:08;0.40;;;0.40;;
46122;SDS011;31856;-35.404;149.120;2022-07-31T18:57:46;0.95;;;0.60;;
46122;SDS011;31856;-35.404;149.120;2022-07-31T19:00:25;0.65;;;0.60;;
46122;SDS011;31856;-35.404;149.120;2022-07-31T19:02:56;1.23;;;0.50;;
46122;SDS011;31856;-35.404;149.120;2022-07-31T19:05:27;1.27;;;1.15;;
46122;SDS011;31856;-35.404;149.120;2022-07-31T19:07:56;0.70;;;0.50;;
46122;SDS011;31856;-35.404;149.120;2022-07-31T19:10:36;1.23;;;0.50;;
46122;SDS011;31856;-35.404;149.120;2022-07-31T19:13:29;0.75;;;0.60;;
46122;SDS011;31856;-35.404;149.120;2022-07-31T19:15:59;0.73;;;0.60;;
46122;SDS011;31856;-35.404;149.120;2022-07-31T19:18:29;0.73;;;0.50;;
46122;SDS011;31856;-35.404;149.120;2022-07-31T19:20:59;0.52;;;0.50;;
46122;SDS011;31856;-35.404;149.120;2022-07-31T19:23:49;2.45;;;1.08;;
46122;SDS011;31856;-35.404;149.120;2022-07-31T19:26:19;1.55;;;0.50;;
46122;SDS011;31856;-35.404;149.120;2022-07-31T19:28:49;0.73;;;0.57;;
46122;SDS011;31856;-35.404;149.120;2022-07-31T19:31:19;1.50;;;0.57;;
46122;SDS011;31856;-35.404;149.120;2022-07-31T19:33:49;0.80;;;0.65;;
46122;SDS011;31856;-35.404;149.120;2022-07-31T19:36:20;0.65;;;0.40;;
46122;SDS011;31856;-35.404;149.120;2022-07-31T19:38:50;2.22;;;0.50;;
46122;SDS011;31856;-35.404;149.120;2022-07-31T19:41:20;1.13;;;0.50;;
46122;SDS011;31856;-35.404;149.120;2022-07-31T19:43:50;0.60;;;0.43;;
46122;SDS011;31856;-35.404;149.120;2022-07-31T19:46:20;1.77;;;0.50;;
46122;SDS011;31856;-35.404;149.120;2022-07-31T19:48:50;0.60;;;0.50;;
46122;SDS011;31856;-35.404;149.120;2022-07-31T19:51:20;0.90;;;0.50;;
46122;SDS011;31856;-35.404;149.120;2022-07-31T19:56:40;0.40;;;0.40;;
46122;SDS011;31856;-35.404;149.120;2022-07-31T19:59:13;0.40;;;0.40;;
46122;SDS011;31856;-35.404;149.120;2022-07-31T20:01:44;0.57;;;0.50;;
46122;SDS011;31856;-35.404;149.120;2022-07-31T20:04:13;0.60;;;0.50;;
46122;SDS011;31856;-35.404;149.120;2022-07-31T20:06:43;0.50;;;0.50;;
46122;SDS011;31856;-35.404;149.120;2022-07-31T20:09:14;0.50;;;0.45;;
46122;SDS011;31856;-35.404;149.120;2022-07-31T20:11:50;0.60;;;0.50;;
46122;SDS011;31856;-35.404;149.120;2022-07-31T20:14:21;1.30;;;0.60;;
46122;SDS011;31856;-35.404;149.120;2022-07-31T20:16:51;0.60;;;0.50;;
46122;SDS011;31856;-35.404;149.120;2022-07-31T20:19:21;0.52;;;0.40;;
46122;SDS011;31856;-35.404;149.120;2022-07-31T20:21:51;0.70;;;0.52;;
46122;SDS011;31856;-35.404;149.120;2022-07-31T20:24:21;0.75;;;0.57;;
46122;SDS011;31856;-35.404;149.120;2022-07-31T20:26:53;0.85;;;0.50;;
46122;SDS011;31856;-35.404;149.120;2022-07-31T20:29:23;0.77;;;0.50;;
46122;SDS011;31856;-35.404;149.120;2022-07-31T20:31:55;0.80;;;0.50;;
46122;SDS011;31856;-35.404;149.120;2022-07-31T20:34:25;0.60;;;0.57;;
46122;SDS011;31856;-35.404;149.120;2022-07-31T20:36:55;0.57;;;0.47;;
46122;SDS011;31856;-35.404;149.120;2022-07-31T20:39:28;0.80;;;0.60;;
46122;SDS011;31856;-35.404;149.120;2022-07-31T20:41:59;1.27;;;0.60;;
46122;SDS011;31856;-35.404;149.120;2022-07-31T20:44:30;0.90;;;0.50;;
46122;SDS011;31856;-35.404;149.120;2022-07-31T20:47:00;2.28;;;0.50;;
46122;SDS011;31856;-35.404;149.120;2022-07-31T20:49:31;1.98;;;0.50;;
46122;SDS011;31856;-35.404;149.120;2022-07-31T20:52:02;1.15;;;0.55;;
46122;SDS011;31856;-35.404;149.120;2022-07-31T20:54:33;1.95;;;0.60;;
46122;SDS011;31856;-35.404;149.120;2022-07-31T20:57:24;0.75;;;0.40;;
46122;SDS011;31856;-35.404;149.120;2022-07-31T20:59:54;0.80;;;0.60;;
46122;SDS011;31856;-35.404;149.120;2022-07-31T21:02:24;1.75;;;0.50;;
46122;SDS011;31856;-35.404;149.120;2022-07-31T21:04:54;1.75;;;0.60;;
46122;SDS011;31856;-35.404;149.120;2022-07-31T21:07:25;0.70;;;0.60;;
46122;SDS011;31856;-35.404;149.120;2022-07-31T21:13:03;0.60;;;0.50;;
46122;SDS011;31856;-35.404;149.120;2022-07-31T21:15:48;1.50;;;0.90;;
46122;SDS011;31856;-35.404;149.120;2022-07-31T21:18:58;1.60;;;0.60;;
46122;SDS011;31856;-35.404;149.120;2022-07-31T21:22:01;1.35;;;0.63;;
46122;SDS011;31856;-35.404;149.120;2022-07-31T21:24:54;0.82;;;0.60;;
46122;SDS011;31856;-35.404;149.120;2022-07-31T21:27:42;0.77;;;0.65;;
46122;SDS011;31856;-35.404;149.120;2022-07-31T21:30:38;1.50;;;0.68;;
46122;SDS011;31856;-35.404;149.120;2022-07-31T21:33:40;1.70;;;1.35;;
46122;SDS011;31856;-35.404;149.120;2022-07-31T21:39:48;1.35;;;0.57;;
46122;SDS011;31856;-35.404;149.120;2022-07-31T21:42:19;0.63;;;0.57;;
46122;SDS011;31856;-35.404;149.120;2022-07-31T21:44:51;1.45;;;1.13;;
46122;SDS011;31856;-35.404;149.120;2022-07-31T21:47:21;1.88;;;0.60;;
46122;SDS011;31856;-35.404;149.120;2022-07-31T21:50:14;0.50;;;0.50;;
46122;SDS011;31856;-35.404;149.120;2022-07-31T21:52:55;0.90;;;0.50;;
46122;SDS011;31856;-35.404;149.120;2022-07-31T21:55:24;0.90;;;0.57;;
46122;SDS011;31856;-35.404;149.120;2022-07-31T21:57:54;3.63;;;0.50;;
46122;SDS011;31856;-35.404;149.120;2022-07-31T22:00:25;1.92;;;0.60;;
46122;SDS011;31856;-35.404;149.120;2022-07-31T22:02:59;1.10;;;0.55;;
46122;SDS011;31856;-35.404;149.120;2022-07-31T22:05:30;0.60;;;0.50;;
46122;SDS011;31856;-35.404;149.120;2022-07-31T22:08:18;1.30;;;0.55;;
46122;SDS011;31856;-35.404;149.120;2022-07-31T22:10:49;0.77;;;0.60;;
46122;SDS011;31856;-35.404;149.120;2022-07-31T22:13:19;0.70;;;0.50;;
46122;SDS011;31856;-35.404;149.120;2022-07-31T22:15:49;1.58;;;0.70;;
46122;SDS011;31856;-35.404;149.120;2022-07-31T22:18:27;0.85;;;0.60;;
46122;SDS011;31856;-35.404;149.120;2022-07-31T22:20:58;1.13;;;0.50;;
46122;SDS011;31856;-35.404;149.120;2022-07-31T22:23:28;1.77;;;0.50;;
46122;SDS011;31856;-35.404;149.120;2022-07-31T22:25:58;1.30;;;0.63;;
46122;SDS011;31856;-35.404;149.120;2022-07-31T22:28:28;1.08;;;0.60;;
46122;SDS011;31856;-35.404;149.120;2022-07-31T22:30:58;2.45;;;0.50;;
46122;SDS011;31856;-35.404;149.120;2022-07-31T22:33:28;2.08;;;0.70;;
46122;SDS011;31856;-35.404;149.120;2022-07-31T22:35:59;0.52;;;0.50;;
46122;SDS011;31856;-35.404;149.120;2022-07-31T22:38:31;0.60;;;0.50;;
46122;SDS011;31856;-35.404;149.120;2022-07-31T22:41:02;0.60;;;0.40;;
46122;SDS011;31856;-35.404;149.120;2022-07-31T22:43:32;0.50;;;0.30;;
46122;SDS011;31856;-35.404;149.120;2022-07-31T22:46:22;0.30;;;0.30;;
46122;SDS011;31856;-35.404;149.120;2022-07-31T22:48:52;0.47;;;0.40;;
46122;SDS011;31856;-35.404;149.120;2022-07-31T22:51:26;0.57;;;0.52;;
46122;SDS011;31856;-35.404;149.120;2022-07-31T22:53:56;0.90;;;0.40;;
46122;SDS011;31856;-35.404;149.120;2022-07-31T22:56:26;0.70;;;0.50;;
46122;SDS011;31856;-35.404;149.120;2022-07-31T22:58:56;1.70;;;0.52;;
46122;SDS011;31856;-35.404;149.120;2022-07-31T23:01:29;0.63;;;0.40;;
46122;SDS011;31856;-35.404;149.120;2022-07-31T23:04:10;1.42;;;0.52;;
46122;SDS011;31856;-35.404;149.120;2022-07-31T23:06:40;0.50;;;0.40;;
46122;SDS011;31856;-35.404;149.120;2022-07-31T23:09:10;0.70;;;0.50;;
46122;SDS011;31856;-35.404;149.120;2022-07-31T23:11:40;0.70;;;0.50;;
46122;SDS011;31856;-35.404;149.120;2022-07-31T23:14:10;1.73;;;0.60;;
46122;SDS011;31856;-35.404;149.120;2022-07-31T23:16:40;2.45;;;0.70;;
46122;SDS011;31856;-35.404;149.120;2022-07-31T23:19:10;1.45;;;0.60;;
46122;SDS011;31856;-35.404;149.120;2022-07-31T23:21:44;0.55;;;0.50;;
46122;SDS011;31856;-35.404;149.120;2022-07-31T23:24:15;1.20;;;0.60;;
46122;SDS011;31856;-35.404;149.120;2022-07-31T23:26:45;2.92;;;0.60;;
46122;SDS011;31856;-35.404;149.120;2022-07-31T23:29:15;0.55;;;0.40;;
46122;SDS011;31856;-35.404;149.120;2022-07-31T23:31:46;0.73;;;0.47;;
46122;SDS011;31856;-35.404;149.120;2022-07-31T23:34:16;1.05;;;0.50;;
46122;SDS011;31856;-35.404;149.120;2022-07-31T23:36:46;0.60;;;0.40;;
46122;SDS011;31856;-35.404;149.120;2022-07-31T23:39:16;0.30;;;0.30;;
46122;SDS011;31856;-35.404;149.120;2022-07-31T23:41:50;0.50;;;0.40;;
